sensor_id;sensor_type;location;lat;lon;timestamp;P1;durP1;ratioP1;P2;durP2;ratioP2
18933;SDS011;9599;53.706;10.384;2023-02-15T00:02:02;55.40;;;23.80;;
18933;SDS011;9599;53.706;10.384;2023-02-15T00:04:30;49.13;;;22.73;;
18933;SDS011;9599;53.706;10.384;2023-02-15T00:07:25;56.50;;;24.50;;
18933;SDS011;9599;53.706;10.384;2023-02-15T00:09:53;55.07;;;22.80;;
18933;SDS011;9599;53.706;10.384;2023-02-15T00:12:21;59.47;;;25.30;;
18933;SDS011;9599;53.706;10.384;2023-02-15T00:14:49;65.03;;;26.20;;
18933;SDS011;9599;53.706;10.384;2023-02-15T00:17:17;63.67;;;26.50;;
18933;SDS011;9599;53.706;10.384;2023-02-15T00:19:45;60.73;;;26.40;;
18933;SDS011;9599;53.706;10.384;2023-02-15T00:22:13;73.33;;;27.30;;
18933;SDS011;9599;53.706;10.384;2023-02-15T00:24:42;63.30;;;27.57;;
18933;SDS011;9599;53.706;10.384;2023-02-15T00:27:10;74.23;;;26.93;;
18933;SDS011;9599;53.706;10.384;2023-02-15T00:29:38;71.77;;;26.80;;
18933;SDS011;9599;53.706;10.384;2023-02-15T00:32:06;70.93;;;27.07;;
18933;SDS011;9599;53.706;10.384;2023-02-15T00:34:33;62.83;;;25.03;;
18933;SDS011;9599;53.706;10.384;2023-02-15T00:37:01;87.20;;;26.70;;
18933;SDS011;9599;53.706;10.384;2023-02-15T00:39:29;82.03;;;25.57;;
18933;SDS011;9599;53.706;10.384;2023-02-15T00:41:59;71.03;;;25.83;;
18933;SDS011;9599;53.706;10.384;2023-02-15T00:44:27;62.97;;;25.67;;
18933;SDS011;9599;53.706;10.384;2023-02-15T00:46:55;69.73;;;25.77;;
18933;SDS011;9599;53.706;10.384;2023-02-15T00:49:23;68.50;;;25.50;;
18933;SDS011;9599;53.706;10.384;2023-02-15T00:51:51;89.07;;;26.27;;
18933;SDS011;9599;53.706;10.384;2023-02-15T00:54:20;76.53;;;25.33;;
18933;SDS011;9599;53.706;10.384;2023-02-15T00:56:48;93.30;;;25.43;;
18933;SDS011;9599;53.706;10.384;2023-02-15T00:59:18;73.70;;;23.77;;
18933;SDS011;9599;53.706;10.384;2023-02-15T01:01:46;74.77;;;25.00;;
18933;SDS011;9599;53.706;10.384;2023-02-15T01:04:14;57.37;;;23.27;;
18933;SDS011;9599;53.706;10.384;2023-02-15T01:06:42;177.63;;;26.97;;
18933;SDS011;9599;53.706;10.384;2023-02-15T01:09:10;280.77;;;27.93;;
18933;SDS011;9599;53.706;10.384;2023-02-15T01:11:39;99.50;;;24.63;;
18933;SDS011;9599;53.706;10.384;2023-02-15T01:14:07;62.30;;;22.47;;
18933;SDS011;9599;53.706;10.384;2023-02-15T01:16:38;109.47;;;23.73;;
18933;SDS011;9599;53.706;10.384;2023-02-15T01:19:06;60.03;;;23.17;;
18933;SDS011;9599;53.706;10.384;2023-02-15T01:21:34;73.23;;;22.73;;
18933;SDS011;9599;53.706;10.384;2023-02-15T01:24:02;61.33;;;23.30;;
18933;SDS011;9599;53.706;10.384;2023-02-15T01:26:30;102.57;;;23.33;;
18933;SDS011;9599;53.706;10.384;2023-02-15T01:28:58;102.67;;;24.37;;
18933;SDS011;9599;53.706;10.384;2023-02-15T01:31:26;75.97;;;23.10;;
18933;SDS011;9599;53.706;10.384;2023-02-15T01:33:55;163.83;;;24.53;;
18933;SDS011;9599;53.706;10.384;2023-02-15T01:36:23;77.33;;;22.87;;
18933;SDS011;9599;53.706;10.384;2023-02-15T01:38:51;78.43;;;23.67;;
18933;SDS011;9599;53.706;10.384;2023-02-15T01:41:19;99.30;;;24.80;;
18933;SDS011;9599;53.706;10.384;2023-02-15T01:43:49;91.23;;;23.60;;
18933;SDS011;9599;53.706;10.384;2023-02-15T01:46:20;79.53;;;25.23;;
18933;SDS011;9599;53.706;10.384;2023-02-15T01:48:52;65.50;;;23.33;;
18933;SDS011;9599;53.706;10.384;2023-02-15T01:51:25;81.37;;;25.00;;
18933;SDS011;9599;53.706;10.384;2023-02-15T01:53:57;60.53;;;23.27;;
18933;SDS011;9599;53.706;10.384;2023-02-15T01:56:29;68.47;;;24.20;;
18933;SDS011;9599;53.706;10.384;2023-02-15T01:59:02;80.67;;;23.90;;
18933;SDS011;9599;53.706;10.384;2023-02-15T02:01:33;60.13;;;23.80;;
18933;SDS011;9599;53.706;10.384;2023-02-15T02:04:04;78.87;;;23.43;;
18933;SDS011;9599;53.706;10.384;2023-02-15T02:06:36;69.73;;;23.63;;
18933;SDS011;9599;53.706;10.384;2023-02-15T02:09:06;56.33;;;23.07;;
18933;SDS011;9599;53.706;10.384;2023-02-15T02:11:34;71.27;;;24.37;;
18933;SDS011;9599;53.706;10.384;2023-02-15T02:14:02;62.13;;;22.90;;
18933;SDS011;9599;53.706;10.384;2023-02-15T02:16:32;59.33;;;23.37;;
18933;SDS011;9599;53.706;10.384;2023-02-15T02:19:17;64.20;;;22.97;;
18933;SDS011;9599;53.706;10.384;2023-02-15T02:22:23;70.07;;;23.40;;
18933;SDS011;9599;53.706;10.384;2023-02-15T02:28:14;51.70;;;22.00;;
18933;SDS011;9599;53.706;10.384;2023-02-15T02:31:09;53.37;;;21.53;;
18933;SDS011;9599;53.706;10.384;2023-02-15T02:34:01;61.90;;;22.23;;
18933;SDS011;9599;53.706;10.384;2023-02-15T02:36:34;53.83;;;21.97;;
18933;SDS011;9599;53.706;10.384;2023-02-15T02:39:12;53.13;;;21.70;;
18933;SDS011;9599;53.706;10.384;2023-02-15T02:41:50;69.67;;;21.80;;
18933;SDS011;9599;53.706;10.384;2023-02-15T02:44:26;63.47;;;21.57;;
18933;SDS011;9599;53.706;10.384;2023-02-15T02:47:02;63.30;;;21.20;;
18933;SDS011;9599;53.706;10.384;2023-02-15T02:49:37;51.10;;;21.30;;
18933;SDS011;9599;53.706;10.384;2023-02-15T02:52:31;97.93;;;22.17;;
18933;SDS011;9599;53.706;10.384;2023-02-15T02:55:07;50.67;;;20.93;;
18933;SDS011;9599;53.706;10.384;2023-02-15T02:57:42;53.47;;;21.87;;
18933;SDS011;9599;53.706;10.384;2023-02-15T03:00:14;79.67;;;22.07;;
18933;SDS011;9599;53.706;10.384;2023-02-15T03:02:44;58.97;;;21.17;;
18933;SDS011;9599;53.706;10.384;2023-02-15T03:05:18;85.47;;;22.57;;
18933;SDS011;9599;53.706;10.384;2023-02-15T03:07:52;59.33;;;21.70;;
18933;SDS011;9599;53.706;10.384;2023-02-15T03:10:23;60.23;;;22.10;;
18933;SDS011;9599;53.706;10.384;2023-02-15T03:12:52;62.40;;;21.87;;
18933;SDS011;9599;53.706;10.384;2023-02-15T03:15:21;61.47;;;20.83;;
18933;SDS011;9599;53.706;10.384;2023-02-15T03:17:54;62.53;;;20.57;;
18933;SDS011;9599;53.706;10.384;2023-02-15T03:20:31;56.03;;;22.00;;
18933;SDS011;9599;53.706;10.384;2023-02-15T03:23:04;67.17;;;20.83;;
18933;SDS011;9599;53.706;10.384;2023-02-15T03:25:36;54.27;;;21.20;;
18933;SDS011;9599;53.706;10.384;2023-02-15T03:28:08;81.13;;;21.87;;
18933;SDS011;9599;53.706;10.384;2023-02-15T03:30:41;67.73;;;21.20;;
18933;SDS011;9599;53.706;10.384;2023-02-15T03:33:10;51.53;;;21.63;;
18933;SDS011;9599;53.706;10.384;2023-02-15T03:35:44;120.67;;;21.70;;
18933;SDS011;9599;53.706;10.384;2023-02-15T03:38:17;60.13;;;20.83;;
18933;SDS011;9599;53.706;10.384;2023-02-15T03:40:48;53.23;;;21.43;;
18933;SDS011;9599;53.706;10.384;2023-02-15T03:43:37;46.50;;;20.90;;
18933;SDS011;9599;53.706;10.384;2023-02-15T03:46:11;88.03;;;21.83;;
18933;SDS011;9599;53.706;10.384;2023-02-15T03:48:44;58.67;;;21.17;;
18933;SDS011;9599;53.706;10.384;2023-02-15T03:51:18;48.63;;;20.63;;
18933;SDS011;9599;53.706;10.384;2023-02-15T03:54:03;53.10;;;20.17;;
18933;SDS011;9599;53.706;10.384;2023-02-15T03:56:34;54.70;;;20.30;;
18933;SDS011;9599;53.706;10.384;2023-02-15T03:59:04;89.03;;;21.13;;
18933;SDS011;9599;53.706;10.384;2023-02-15T04:01:53;102.57;;;21.77;;
18933;SDS011;9599;53.706;10.384;2023-02-15T04:04:31;72.50;;;20.47;;
18933;SDS011;9599;53.706;10.384;2023-02-15T04:07:03;58.50;;;20.57;;
18933;SDS011;9599;53.706;10.384;2023-02-15T04:09:32;108.10;;;20.83;;
18933;SDS011;9599;53.706;10.384;2023-02-15T04:12:18;48.73;;;19.87;;
18933;SDS011;9599;53.706;10.384;2023-02-15T04:14:46;81.17;;;20.47;;
18933;SDS011;9599;53.706;10.384;2023-02-15T04:17:31;50.57;;;21.03;;
18933;SDS011;9599;53.706;10.384;2023-02-15T04:19:59;45.37;;;19.57;;
18933;SDS011;9599;53.706;10.384;2023-02-15T04:22:46;58.77;;;20.40;;
18933;SDS011;9599;53.706;10.384;2023-02-15T04:25:32;64.37;;;20.43;;
18933;SDS011;9599;53.706;10.384;2023-02-15T04:28:00;80.43;;;20.83;;
18933;SDS011;9599;53.706;10.384;2023-02-15T04:30:27;52.57;;;20.07;;
18933;SDS011;9599;53.706;10.384;2023-02-15T04:32:55;49.63;;;19.80;;
18933;SDS011;9599;53.706;10.384;2023-02-15T04:35:23;47.63;;;19.83;;
18933;SDS011;9599;53.706;10.384;2023-02-15T04:37:53;50.67;;;20.30;;
18933;SDS011;9599;53.706;10.384;2023-02-15T04:40:21;55.03;;;19.33;;
18933;SDS011;9599;53.706;10.384;2023-02-15T04:42:49;50.40;;;19.17;;
18933;SDS011;9599;53.706;10.384;2023-02-15T04:45:17;54.20;;;19.13;;
18933;SDS011;9599;53.706;10.384;2023-02-15T04:47:45;58.53;;;19.37;;
18933;SDS011;9599;53.706;10.384;2023-02-15T04:50:13;52.33;;;19.03;;
18933;SDS011;9599;53.706;10.384;2023-02-15T04:52:41;52.13;;;17.83;;
18933;SDS011;9599;53.706;10.384;2023-02-15T04:55:10;43.33;;;18.37;;
18933;SDS011;9599;53.706;10.384;2023-02-15T04:57:38;54.93;;;19.37;;
18933;SDS011;9599;53.706;10.384;2023-02-15T05:00:10;49.70;;;18.07;;
18933;SDS011;9599;53.706;10.384;2023-02-15T05:02:38;51.77;;;18.10;;
18933;SDS011;9599;53.706;10.384;2023-02-15T05:05:06;61.73;;;19.10;;
18933;SDS011;9599;53.706;10.384;2023-02-15T05:07:35;44.03;;;18.47;;
18933;SDS011;9599;53.706;10.384;2023-02-15T05:10:03;46.93;;;19.13;;
18933;SDS011;9599;53.706;10.384;2023-02-15T05:12:33;44.13;;;18.33;;
18933;SDS011;9599;53.706;10.384;2023-02-15T05:15:01;55.47;;;19.40;;
18933;SDS011;9599;53.706;10.384;2023-02-15T05:17:29;44.20;;;18.60;;
18933;SDS011;9599;53.706;10.384;2023-02-15T05:19:57;49.00;;;18.07;;
18933;SDS011;9599;53.706;10.384;2023-02-15T05:22:25;68.33;;;18.83;;
18933;SDS011;9599;53.706;10.384;2023-02-15T05:24:52;52.80;;;17.77;;
18933;SDS011;9599;53.706;10.384;2023-02-15T05:27:39;85.47;;;18.67;;
18933;SDS011;9599;53.706;10.384;2023-02-15T05:30:25;139.33;;;19.13;;
18933;SDS011;9599;53.706;10.384;2023-02-15T05:32:53;46.33;;;18.23;;
18933;SDS011;9599;53.706;10.384;2023-02-15T05:35:21;90.30;;;19.13;;
18933;SDS011;9599;53.706;10.384;2023-02-15T05:37:49;67.60;;;19.80;;
18933;SDS011;9599;53.706;10.384;2023-02-15T05:40:17;62.70;;;19.67;;
18933;SDS011;9599;53.706;10.384;2023-02-15T05:42:46;62.80;;;19.87;;
18933;SDS011;9599;53.706;10.384;2023-02-15T05:45:14;56.30;;;18.63;;
18933;SDS011;9599;53.706;10.384;2023-02-15T05:47:42;57.50;;;18.50;;
18933;SDS011;9599;53.706;10.384;2023-02-15T05:50:10;82.37;;;19.80;;
18933;SDS011;9599;53.706;10.384;2023-02-15T05:52:38;57.97;;;19.67;;
18933;SDS011;9599;53.706;10.384;2023-02-15T05:55:06;72.27;;;19.63;;
18933;SDS011;9599;53.706;10.384;2023-02-15T05:57:35;71.80;;;19.73;;
18933;SDS011;9599;53.706;10.384;2023-02-15T06:00:05;64.40;;;18.80;;
18933;SDS011;9599;53.706;10.384;2023-02-15T06:02:38;54.97;;;19.40;;
18933;SDS011;9599;53.706;10.384;2023-02-15T06:05:07;46.63;;;18.47;;
18933;SDS011;9599;53.706;10.384;2023-02-15T06:07:35;59.47;;;18.17;;
18933;SDS011;9599;53.706;10.384;2023-02-15T06:10:03;52.67;;;18.27;;
18933;SDS011;9599;53.706;10.384;2023-02-15T06:12:32;48.40;;;18.40;;
18933;SDS011;9599;53.706;10.384;2023-02-15T06:15:00;81.73;;;20.13;;
18933;SDS011;9599;53.706;10.384;2023-02-15T06:17:29;47.73;;;18.37;;
18933;SDS011;9599;53.706;10.384;2023-02-15T06:19:57;48.47;;;18.67;;
18933;SDS011;9599;53.706;10.384;2023-02-15T06:22:25;79.70;;;19.97;;
18933;SDS011;9599;53.706;10.384;2023-02-15T06:24:53;67.33;;;19.17;;
18933;SDS011;9599;53.706;10.384;2023-02-15T06:27:20;127.60;;;20.70;;
18933;SDS011;9599;53.706;10.384;2023-02-15T06:29:48;50.73;;;18.60;;
18933;SDS011;9599;53.706;10.384;2023-02-15T06:32:16;67.93;;;19.47;;
18933;SDS011;9599;53.706;10.384;2023-02-15T06:34:45;60.03;;;19.00;;
18933;SDS011;9599;53.706;10.384;2023-02-15T06:37:14;128.30;;;19.23;;
18933;SDS011;9599;53.706;10.384;2023-02-15T06:39:42;61.40;;;19.23;;
18933;SDS011;9599;53.706;10.384;2023-02-15T06:42:10;56.30;;;19.20;;
18933;SDS011;9599;53.706;10.384;2023-02-15T06:44:38;48.47;;;18.00;;
18933;SDS011;9599;53.706;10.384;2023-02-15T06:47:06;131.93;;;23.23;;
18933;SDS011;9599;53.706;10.384;2023-02-15T06:49:34;49.30;;;19.63;;
18933;SDS011;9599;53.706;10.384;2023-02-15T06:52:03;91.47;;;20.20;;
18933;SDS011;9599;53.706;10.384;2023-02-15T06:54:32;49.53;;;18.60;;
18933;SDS011;9599;53.706;10.384;2023-02-15T06:57:00;79.13;;;20.23;;
18933;SDS011;9599;53.706;10.384;2023-02-15T06:59:27;148.70;;;20.03;;
18933;SDS011;9599;53.706;10.384;2023-02-15T07:01:55;163.40;;;20.43;;
18933;SDS011;9599;53.706;10.384;2023-02-15T07:04:23;107.03;;;17.60;;
18933;SDS011;9599;53.706;10.384;2023-02-15T07:06:51;125.87;;;19.17;;
18933;SDS011;9599;53.706;10.384;2023-02-15T07:09:21;131.90;;;19.43;;
18933;SDS011;9599;53.706;10.384;2023-02-15T07:11:50;117.70;;;18.00;;
18933;SDS011;9599;53.706;10.384;2023-02-15T07:14:37;43.80;;;17.40;;
18933;SDS011;9599;53.706;10.384;2023-02-15T07:17:06;153.00;;;20.17;;
18933;SDS011;9599;53.706;10.384;2023-02-15T07:19:54;51.53;;;17.70;;
18933;SDS011;9599;53.706;10.384;2023-02-15T07:22:22;49.20;;;17.10;;
18933;SDS011;9599;53.706;10.384;2023-02-15T07:24:51;40.53;;;16.87;;
18933;SDS011;9599;53.706;10.384;2023-02-15T07:27:22;46.50;;;16.47;;
18933;SDS011;9599;53.706;10.384;2023-02-15T07:29:50;65.73;;;19.07;;
18933;SDS011;9599;53.706;10.384;2023-02-15T07:32:18;58.70;;;20.07;;
18933;SDS011;9599;53.706;10.384;2023-02-15T07:34:46;48.17;;;18.63;;
18933;SDS011;9599;53.706;10.384;2023-02-15T07:37:14;87.53;;;19.80;;
18933;SDS011;9599;53.706;10.384;2023-02-15T07:39:42;81.87;;;17.60;;
18933;SDS011;9599;53.706;10.384;2023-02-15T07:42:11;47.83;;;17.53;;
18933;SDS011;9599;53.706;10.384;2023-02-15T07:44:39;125.73;;;19.13;;
18933;SDS011;9599;53.706;10.384;2023-02-15T07:47:07;48.13;;;16.80;;
18933;SDS011;9599;53.706;10.384;2023-02-15T07:49:35;49.63;;;16.63;;
18933;SDS011;9599;53.706;10.384;2023-02-15T07:52:03;59.47;;;17.57;;
18933;SDS011;9599;53.706;10.384;2023-02-15T07:54:31;37.60;;;16.43;;
18933;SDS011;9599;53.706;10.384;2023-02-15T07:57:00;70.70;;;16.83;;
18933;SDS011;9599;53.706;10.384;2023-02-15T07:59:29;60.43;;;17.43;;
18933;SDS011;9599;53.706;10.384;2023-02-15T08:01:57;48.83;;;16.70;;
18933;SDS011;9599;53.706;10.384;2023-02-15T08:04:25;77.10;;;17.47;;
18933;SDS011;9599;53.706;10.384;2023-02-15T08:06:53;52.20;;;17.43;;
18933;SDS011;9599;53.706;10.384;2023-02-15T08:09:21;52.00;;;16.70;;
18933;SDS011;9599;53.706;10.384;2023-02-15T08:11:49;47.93;;;17.13;;
18933;SDS011;9599;53.706;10.384;2023-02-15T08:14:18;119.17;;;18.43;;
18933;SDS011;9599;53.706;10.384;2023-02-15T08:16:51;46.43;;;17.37;;
18933;SDS011;9599;53.706;10.384;2023-02-15T08:19:21;172.33;;;20.13;;
18933;SDS011;9599;53.706;10.384;2023-02-15T08:21:52;56.37;;;18.03;;
18933;SDS011;9599;53.706;10.384;2023-02-15T08:24:21;42.73;;;17.87;;
18933;SDS011;9599;53.706;10.384;2023-02-15T08:26:51;53.57;;;18.00;;
18933;SDS011;9599;53.706;10.384;2023-02-15T08:29:20;67.13;;;19.80;;
18933;SDS011;9599;53.706;10.384;2023-02-15T08:31:52;47.90;;;18.33;;
18933;SDS011;9599;53.706;10.384;2023-02-15T08:34:21;77.77;;;18.70;;
18933;SDS011;9599;53.706;10.384;2023-02-15T08:36:49;64.37;;;21.87;;
18933;SDS011;9599;53.706;10.384;2023-02-15T08:39:17;75.87;;;20.33;;
18933;SDS011;9599;53.706;10.384;2023-02-15T08:41:45;152.73;;;20.90;;
18933;SDS011;9599;53.706;10.384;2023-02-15T08:44:15;58.97;;;17.90;;
18933;SDS011;9599;53.706;10.384;2023-02-15T08:46:44;61.17;;;20.73;;
18933;SDS011;9599;53.706;10.384;2023-02-15T08:49:15;54.87;;;18.40;;
18933;SDS011;9599;53.706;10.384;2023-02-15T08:51:45;51.67;;;22.07;;
18933;SDS011;9599;53.706;10.384;2023-02-15T08:54:14;138.83;;;21.70;;
18933;SDS011;9599;53.706;10.384;2023-02-15T08:56:43;75.33;;;18.87;;
18933;SDS011;9599;53.706;10.384;2023-02-15T08:59:12;66.37;;;29.07;;
18933;SDS011;9599;53.706;10.384;2023-02-15T09:01:42;61.30;;;21.60;;
18933;SDS011;9599;53.706;10.384;2023-02-15T09:04:10;149.17;;;67.53;;
18933;SDS011;9599;53.706;10.384;2023-02-15T09:06:41;117.80;;;18.90;;
18933;SDS011;9599;53.706;10.384;2023-02-15T09:09:13;123.83;;;18.97;;
18933;SDS011;9599;53.706;10.384;2023-02-15T09:11:42;49.93;;;16.23;;
18933;SDS011;9599;53.706;10.384;2023-02-15T09:14:12;140.30;;;17.73;;
18933;SDS011;9599;53.706;10.384;2023-02-15T09:16:41;135.73;;;17.77;;
18933;SDS011;9599;53.706;10.384;2023-02-15T09:19:12;53.23;;;17.57;;
18933;SDS011;9599;53.706;10.384;2023-02-15T09:21:41;39.13;;;16.70;;
18933;SDS011;9599;53.706;10.384;2023-02-15T09:24:10;46.60;;;17.80;;
18933;SDS011;9599;53.706;10.384;2023-02-15T09:26:40;113.60;;;17.50;;
18933;SDS011;9599;53.706;10.384;2023-02-15T09:29:10;99.27;;;18.10;;
18933;SDS011;9599;53.706;10.384;2023-02-15T09:31:39;133.53;;;18.20;;
18933;SDS011;9599;53.706;10.384;2023-02-15T09:34:10;133.57;;;19.33;;
18933;SDS011;9599;53.706;10.384;2023-02-15T09:36:38;53.63;;;18.10;;
18933;SDS011;9599;53.706;10.384;2023-02-15T09:39:09;41.80;;;15.70;;
18933;SDS011;9599;53.706;10.384;2023-02-15T09:44:41;121.47;;;17.90;;
18933;SDS011;9599;53.706;10.384;2023-02-15T09:47:31;179.87;;;18.40;;
18933;SDS011;9599;53.706;10.384;2023-02-15T09:50:15;68.33;;;16.47;;
18933;SDS011;9599;53.706;10.384;2023-02-15T09:52:51;38.90;;;17.13;;
18933;SDS011;9599;53.706;10.384;2023-02-15T09:55:36;58.60;;;18.07;;
18933;SDS011;9599;53.706;10.384;2023-02-15T09:58:14;50.70;;;18.73;;
18933;SDS011;9599;53.706;10.384;2023-02-15T10:00:51;39.60;;;17.80;;
18933;SDS011;9599;53.706;10.384;2023-02-15T10:03:33;45.63;;;16.03;;
18933;SDS011;9599;53.706;10.384;2023-02-15T10:06:14;40.90;;;16.83;;
18933;SDS011;9599;53.706;10.384;2023-02-15T10:09:09;38.60;;;17.23;;
18933;SDS011;9599;53.706;10.384;2023-02-15T10:11:58;52.00;;;17.70;;
18933;SDS011;9599;53.706;10.384;2023-02-15T10:14:45;39.60;;;17.03;;
18933;SDS011;9599;53.706;10.384;2023-02-15T10:17:35;55.63;;;18.03;;
18933;SDS011;9599;53.706;10.384;2023-02-15T10:20:17;38.67;;;18.27;;
18933;SDS011;9599;53.706;10.384;2023-02-15T10:23:00;61.30;;;17.43;;
18933;SDS011;9599;53.706;10.384;2023-02-15T10:25:40;57.83;;;16.87;;
18933;SDS011;9599;53.706;10.384;2023-02-15T10:28:15;52.27;;;16.77;;
18933;SDS011;9599;53.706;10.384;2023-02-15T10:30:46;92.53;;;17.73;;
18933;SDS011;9599;53.706;10.384;2023-02-15T10:33:33;43.33;;;16.23;;
18933;SDS011;9599;53.706;10.384;2023-02-15T10:36:10;36.37;;;15.63;;
18933;SDS011;9599;53.706;10.384;2023-02-15T10:38:47;46.50;;;16.80;;
18933;SDS011;9599;53.706;10.384;2023-02-15T10:41:24;45.20;;;18.20;;
18933;SDS011;9599;53.706;10.384;2023-02-15T10:44:02;68.80;;;22.83;;
18933;SDS011;9599;53.706;10.384;2023-02-15T10:49:48;61.00;;;17.97;;
18933;SDS011;9599;53.706;10.384;2023-02-15T10:52:28;75.17;;;18.07;;
18933;SDS011;9599;53.706;10.384;2023-02-15T10:55:07;56.83;;;19.70;;
18933;SDS011;9599;53.706;10.384;2023-02-15T10:57:45;39.53;;;15.50;;
18933;SDS011;9599;53.706;10.384;2023-02-15T11:00:21;57.13;;;16.70;;
18933;SDS011;9599;53.706;10.384;2023-02-15T11:03:00;46.20;;;17.20;;
18933;SDS011;9599;53.706;10.384;2023-02-15T11:05:42;61.87;;;15.37;;
18933;SDS011;9599;53.706;10.384;2023-02-15T11:08:16;50.60;;;17.57;;
18933;SDS011;9599;53.706;10.384;2023-02-15T11:10:46;44.30;;;17.23;;
18933;SDS011;9599;53.706;10.384;2023-02-15T11:13:19;76.87;;;17.80;;
18933;SDS011;9599;53.706;10.384;2023-02-15T11:15:52;48.30;;;17.43;;
18933;SDS011;9599;53.706;10.384;2023-02-15T11:18:23;43.60;;;16.57;;
18933;SDS011;9599;53.706;10.384;2023-02-15T11:20:57;41.97;;;16.47;;
18933;SDS011;9599;53.706;10.384;2023-02-15T11:23:29;49.30;;;16.87;;
18933;SDS011;9599;53.706;10.384;2023-02-15T11:26:01;52.43;;;18.27;;
18933;SDS011;9599;53.706;10.384;2023-02-15T11:28:33;46.00;;;19.30;;
18933;SDS011;9599;53.706;10.384;2023-02-15T11:31:11;53.97;;;19.60;;
18933;SDS011;9599;53.706;10.384;2023-02-15T11:33:43;76.57;;;19.03;;
18933;SDS011;9599;53.706;10.384;2023-02-15T11:36:15;67.47;;;19.00;;
18933;SDS011;9599;53.706;10.384;2023-02-15T11:38:47;50.77;;;21.43;;
18933;SDS011;9599;53.706;10.384;2023-02-15T11:41:20;52.80;;;21.73;;
18933;SDS011;9599;53.706;10.384;2023-02-15T11:43:53;46.80;;;19.80;;
18933;SDS011;9599;53.706;10.384;2023-02-15T11:46:26;54.97;;;19.33;;
18933;SDS011;9599;53.706;10.384;2023-02-15T11:48:55;45.63;;;18.83;;
18933;SDS011;9599;53.706;10.384;2023-02-15T11:51:24;47.53;;;21.00;;
18933;SDS011;9599;53.706;10.384;2023-02-15T11:53:55;45.90;;;20.23;;
18933;SDS011;9599;53.706;10.384;2023-02-15T11:56:24;74.67;;;21.10;;
18933;SDS011;9599;53.706;10.384;2023-02-15T11:58:53;58.20;;;21.00;;
18933;SDS011;9599;53.706;10.384;2023-02-15T12:01:28;46.20;;;20.43;;
18933;SDS011;9599;53.706;10.384;2023-02-15T12:04:01;60.87;;;20.37;;
18933;SDS011;9599;53.706;10.384;2023-02-15T12:06:34;59.10;;;22.03;;
18933;SDS011;9599;53.706;10.384;2023-02-15T12:09:06;59.03;;;20.83;;
18933;SDS011;9599;53.706;10.384;2023-02-15T12:11:48;44.60;;;21.03;;
18933;SDS011;9599;53.706;10.384;2023-02-15T12:14:16;53.03;;;22.03;;
18933;SDS011;9599;53.706;10.384;2023-02-15T12:16:46;52.93;;;20.53;;
18933;SDS011;9599;53.706;10.384;2023-02-15T12:19:23;53.10;;;21.97;;
18933;SDS011;9599;53.706;10.384;2023-02-15T12:21:56;52.90;;;21.87;;
18933;SDS011;9599;53.706;10.384;2023-02-15T12:24:26;58.03;;;24.10;;
18933;SDS011;9599;53.706;10.384;2023-02-15T12:26:56;55.13;;;23.00;;
18933;SDS011;9599;53.706;10.384;2023-02-15T12:29:27;67.33;;;23.50;;
18933;SDS011;9599;53.706;10.384;2023-02-15T12:31:59;67.00;;;37.70;;
18933;SDS011;9599;53.706;10.384;2023-02-15T12:34:29;57.17;;;24.93;;
18933;SDS011;9599;53.706;10.384;2023-02-15T12:37:00;56.83;;;23.60;;
18933;SDS011;9599;53.706;10.384;2023-02-15T12:39:35;58.47;;;23.93;;
18933;SDS011;9599;53.706;10.384;2023-02-15T12:42:04;62.07;;;27.93;;
18933;SDS011;9599;53.706;10.384;2023-02-15T12:44:52;70.60;;;26.60;;
18933;SDS011;9599;53.706;10.384;2023-02-15T12:47:23;63.83;;;24.70;;
18933;SDS011;9599;53.706;10.384;2023-02-15T12:50:10;64.17;;;25.70;;
18933;SDS011;9599;53.706;10.384;2023-02-15T12:52:44;68.10;;;26.60;;
18933;SDS011;9599;53.706;10.384;2023-02-15T12:55:18;64.30;;;28.33;;
18933;SDS011;9599;53.706;10.384;2023-02-15T13:00:43;68.10;;;27.83;;
18933;SDS011;9599;53.706;10.384;2023-02-15T13:03:17;70.97;;;28.50;;
18933;SDS011;9599;53.706;10.384;2023-02-15T13:05:47;67.70;;;28.30;;
18933;SDS011;9599;53.706;10.384;2023-02-15T13:08:19;65.90;;;28.43;;
18933;SDS011;9599;53.706;10.384;2023-02-15T13:10:53;66.97;;;29.00;;
18933;SDS011;9599;53.706;10.384;2023-02-15T13:13:24;69.93;;;29.17;;
18933;SDS011;9599;53.706;10.384;2023-02-15T13:15:55;71.73;;;29.40;;
18933;SDS011;9599;53.706;10.384;2023-02-15T13:18:28;73.43;;;31.27;;
18933;SDS011;9599;53.706;10.384;2023-02-15T13:21:04;94.93;;;43.70;;
18933;SDS011;9599;53.706;10.384;2023-02-15T13:23:38;83.83;;;31.23;;
18933;SDS011;9599;53.706;10.384;2023-02-15T13:26:11;71.00;;;28.30;;
18933;SDS011;9599;53.706;10.384;2023-02-15T13:28:45;67.13;;;29.40;;
18933;SDS011;9599;53.706;10.384;2023-02-15T13:31:15;70.13;;;29.90;;
18933;SDS011;9599;53.706;10.384;2023-02-15T13:33:48;70.63;;;30.53;;
18933;SDS011;9599;53.706;10.384;2023-02-15T13:36:21;74.37;;;29.60;;
18933;SDS011;9599;53.706;10.384;2023-02-15T13:39:05;80.53;;;31.30;;
18933;SDS011;9599;53.706;10.384;2023-02-15T13:41:44;74.27;;;33.33;;
18933;SDS011;9599;53.706;10.384;2023-02-15T13:44:27;78.87;;;31.03;;
18933;SDS011;9599;53.706;10.384;2023-02-15T13:47:08;76.97;;;32.23;;
18933;SDS011;9599;53.706;10.384;2023-02-15T13:49:50;76.60;;;30.93;;
18933;SDS011;9599;53.706;10.384;2023-02-15T13:52:27;73.33;;;31.90;;
18933;SDS011;9599;53.706;10.384;2023-02-15T13:55:03;74.87;;;31.03;;
18933;SDS011;9599;53.706;10.384;2023-02-15T13:57:47;86.20;;;31.53;;
18933;SDS011;9599;53.706;10.384;2023-02-15T14:00:31;72.23;;;30.77;;
18933;SDS011;9599;53.706;10.384;2023-02-15T14:03:13;70.77;;;32.60;;
18933;SDS011;9599;53.706;10.384;2023-02-15T14:09:26;82.87;;;34.07;;
18933;SDS011;9599;53.706;10.384;2023-02-15T14:12:11;76.77;;;32.33;;
18933;SDS011;9599;53.706;10.384;2023-02-15T14:14:56;82.93;;;32.03;;
18933;SDS011;9599;53.706;10.384;2023-02-15T14:17:40;82.37;;;32.83;;
18933;SDS011;9599;53.706;10.384;2023-02-15T14:20:18;90.83;;;40.17;;
18933;SDS011;9599;53.706;10.384;2023-02-15T14:22:53;78.20;;;33.23;;
18933;SDS011;9599;53.706;10.384;2023-02-15T14:25:33;78.23;;;33.00;;
18933;SDS011;9599;53.706;10.384;2023-02-15T14:28:07;79.67;;;35.43;;
18933;SDS011;9599;53.706;10.384;2023-02-15T14:30:38;76.33;;;33.53;;
18933;SDS011;9599;53.706;10.384;2023-02-15T14:33:28;82.70;;;34.03;;
18933;SDS011;9599;53.706;10.384;2023-02-15T14:36:03;87.70;;;35.80;;
18933;SDS011;9599;53.706;10.384;2023-02-15T14:38:42;93.37;;;36.10;;
18933;SDS011;9599;53.706;10.384;2023-02-15T14:41:17;89.60;;;36.53;;
18933;SDS011;9599;53.706;10.384;2023-02-15T14:43:49;86.53;;;35.37;;
18933;SDS011;9599;53.706;10.384;2023-02-15T14:46:25;88.33;;;36.33;;
18933;SDS011;9599;53.706;10.384;2023-02-15T14:49:03;91.13;;;36.03;;
18933;SDS011;9599;53.706;10.384;2023-02-15T14:57:34;89.97;;;36.00;;
18933;SDS011;9599;53.706;10.384;2023-02-15T15:00:12;92.73;;;37.00;;
18933;SDS011;9599;53.706;10.384;2023-02-15T15:03:16;88.20;;;36.00;;
18933;SDS011;9599;53.706;10.384;2023-02-15T15:05:50;90.03;;;36.47;;
18933;SDS011;9599;53.706;10.384;2023-02-15T15:08:25;89.83;;;36.27;;
18933;SDS011;9599;53.706;10.384;2023-02-15T15:11:36;100.23;;;38.97;;
18933;SDS011;9599;53.706;10.384;2023-02-15T15:14:11;94.77;;;36.63;;
18933;SDS011;9599;53.706;10.384;2023-02-15T15:17:08;97.73;;;37.03;;